Time;durP1;ratioP1;P1;durP2;ratioP2;P2;SDS_P1;SDS_P2;PMS_P1;PMS_P2;Temp;Humidity;BMP_temperature;BMP_pressure;BME280_temperature;BME280_humidity;BME280_pressure;Samples;Min_cycle;Max_cycle;Signal;HPM_P1;HPM_P2
2022/01/31 00:00:12;;;;;;;21.98;10.13;;;;;;;-2.67;75.92;97709.00;5002958;28;20136;-79
2022/01/31 00:02:45;;;;;;;21.17;10.35;;;;;;;-2.73;76.07;97707.19;5030080;28;20065;-79
2022/01/31 00:05:13;;;;;;;18.70;9.38;;;;;;;-2.78;76.19;97684.91;5032079;28;20084;-79
2022/01/31 00:07:41;;;;;;;21.60;10.57;;;;;;;-2.60;75.71;97692.09;5014374;28;20053;-80
2022/01/31 00:10:11;;;;;;;21.17;10.25;;;;;;;-2.67;75.75;97686.00;5013150;28;20085;-81
2022/01/31 00:12:55;;;;;;;22.50;10.60;;;;;;;-2.71;75.72;97682.53;5011993;28;20056;-80
2022/01/31 00:15:22;;;;;;;23.08;10.73;;;;;;;-2.66;75.75;97689.44;5011658;28;20506;-79
2022/01/31 00:17:50;;;;;;;24.80;10.48;;;;;;;-2.78;75.33;97659.34;4995267;28;20060;-81
2022/01/31 00:20:17;;;;;;;20.52;10.52;;;;;;;-2.59;75.79;97689.56;5012927;28;20061;-79
2022/01/31 00:22:44;;;;;;;19.85;10.30;;;;;;;-2.61;75.56;97690.38;5011918;28;20552;-80
2022/01/31 00:25:13;;;;;;;20.58;10.02;;;;;;;-2.66;75.64;97681.75;5012996;28;20054;-80
2022/01/31 00:27:40;;;;;;;23.20;11.38;;;;;;;-2.66;75.88;97674.94;5013234;28;20089;-79
2022/01/31 00:30:09;;;;;;;20.80;9.80;;;;;;;-2.71;75.75;97653.53;5013489;28;20100;-80
2022/01/31 00:32:37;;;;;;;18.88;10.43;;;;;;;-2.59;75.49;97670.81;5012963;28;20057;-80
2022/01/31 00:35:05;;;;;;;22.65;10.48;;;;;;;-2.56;75.48;97666.66;5011873;28;20136;-78
2022/01/31 00:37:33;;;;;;;22.05;10.32;;;;;;;-2.68;75.30;97636.56;5011967;28;20061;-80
2022/01/31 00:40:01;;;;;;;21.02;10.45;;;;;;;-2.47;74.91;97673.63;5013220;28;20054;-79
2022/01/31 00:42:30;;;;;;;20.20;10.20;;;;;;;-2.44;75.08;97671.13;5012599;28;20104;-80
2022/01/31 00:45:10;;;;;;;20.58;10.18;;;;;;;-2.50;74.93;97661.63;4995602;28;20132;-79
2022/01/31 00:47:40;;;;;;;22.27;10.52;;;;;;;-2.67;75.33;97639.97;5013162;28;20046;-79
2022/01/31 00:50:09;;;;;;;20.02;10.48;;;;;;;-2.48;75.32;97677.88;5016148;28;20053;-78
2022/01/31 00:52:39;;;;;;;21.48;10.43;;;;;;;-2.57;75.08;97669.16;5015357;28;20425;-79
2022/01/31 00:55:09;;;;;;;22.47;10.57;;;;;;;-2.51;75.19;97685.47;5015824;28;20577;-80
2022/01/31 00:57:37;;;;;;;21.08;9.88;;;;;;;-2.52;75.26;97683.78;5018128;28;20064;-80
2022/01/31 01:00:05;;;;;;;23.58;10.85;;;;;;;-2.54;75.10;97665.00;5020526;28;20053;-79
2022/01/31 01:02:34;;;;;;;25.70;11.43;;;;;;;-2.52;75.36;97667.56;4994967;28;20108;-79
2022/01/31 01:05:02;;;;;;;21.42;10.40;;;;;;;-2.50;75.01;97674.41;5011519;28;20054;-79
2022/01/31 01:07:30;;;;;;;21.92;10.82;;;;;;;-2.60;75.21;97666.53;5011178;28;20045;-79
2022/01/31 01:09:57;;;;;;;21.63;10.45;;;;;;;-2.47;75.20;97665.97;5012400;28;20076;-80
2022/01/31 01:12:25;;;;;;;21.33;10.40;;;;;;;-2.51;74.98;97653.94;5013706;28;20050;-80
2022/01/31 01:14:52;;;;;;;22.80;10.38;;;;;;;-2.54;75.03;97658.97;4998801;28;20056;-79
2022/01/31 01:17:19;;;;;;;23.13;11.10;;;;;;;-2.53;74.98;97664.13;4998954;28;20052;-80
2022/01/31 01:19:47;;;;;;;25.60;11.85;;;;;;;-2.65;74.92;97624.69;5015186;28;20049;-79
2022/01/31 01:22:15;;;;;;;21.17;11.57;;;;;;;-2.50;75.20;97663.31;5016025;28;20144;-80
2022/01/31 01:24:42;;;;;;;23.33;11.10;;;;;;;-2.49;75.40;97642.91;4982263;28;20050;-79
2022/01/31 01:27:11;;;;;;;21.95;11.60;;;;;;;-2.57;75.07;97630.81;5014703;28;20156;-80
2022/01/31 01:29:38;;;;;;;23.20;11.57;;;;;;;-2.43;74.98;97656.63;5014684;28;20064;-80
2022/01/31 01:32:05;;;;;;;23.45;11.38;;;;;;;-2.47;74.58;97635.28;5014452;28;20050;-79
2022/01/31 01:34:34;;;;;;;24.38;11.30;;;;;;;-2.50;74.88;97650.53;4983111;28;20045;-81
2022/01/31 01:37:03;;;;;;;29.33;13.55;;;;;;;-2.70;75.15;97625.47;5016169;28;20080;-79
2022/01/31 01:39:32;;;;;;;;;;;;;;;-2.69;75.25;97655.31;4999607;28;20050;-79
2022/01/31 01:42:00;;;;;;;20.85;11.27;;;;;;;-2.63;75.29;97658.81;5021781;28;19992;-80
2022/01/31 01:44:44;;;;;;;28.50;13.18;;;;;;;-2.62;75.35;97652.88;5022116;28;20057;-79
2022/01/31 01:47:23;;;;;;;24.98;12.00;;;;;;;-2.56;75.12;97656.41;5023173;28;20184;-80
2022/01/31 01:49:52;;;;;;;25.38;12.63;;;;;;;-2.50;75.23;97650.53;5022528;28;20061;-78
2022/01/31 01:52:24;;;;;;;26.08;12.07;;;;;;;-2.57;75.40;97633.38;5005977;28;20054;-79
2022/01/31 01:54:52;;;;;;;24.25;12.13;;;;;;;-2.52;75.33;97652.22;5011066;28;20053;-79
2022/01/31 01:57:23;;;;;;;19.90;10.70;;;;;;;-2.59;75.45;97633.34;5002190;28;20437;-79
2022/01/31 01:59:56;;;;;;;27.25;13.02;;;;;;;-2.47;75.31;97656.59;4982671;28;20054;-78
2022/01/31 02:02:45;;;;;;;27.33;12.45;;;;;;;-2.49;75.51;97662.50;5015447;28;20050;-79
2022/01/31 02:05:17;;;;;;;27.98;13.18;;;;;;;-2.55;75.00;97650.47;5014131;28;20045;-80
2022/01/31 02:07:46;;;;;;;27.48;12.40;;;;;;;-2.45;75.13;97665.97;5014213;28;20053;-79
2022/01/31 02:10:16;;;;;;;29.58;13.23;;;;;;;-2.41;75.47;97660.97;4997895;28;20053;-77
2022/01/31 02:13:04;;;;;;;25.55;12.48;;;;;;;-2.36;75.49;97668.72;5015035;28;20053;-78
2022/01/31 02:15:54;;;;;;;24.58;12.82;;;;;;;-2.37;75.36;97638.88;5014561;28;20050;-81
2022/01/31 02:18:27;;;;;;;26.25;12.52;;;;;;;-2.44;75.19;97625.09;5015103;28;20085;-79
2022/01/31 02:20:57;;;;;;;27.08;12.57;;;;;;;-2.29;75.43;97639.88;5013998;28;20069;-80
2022/01/31 02:23:27;;;;;;;23.95;12.38;;;;;;;-2.55;75.19;97613.81;5013636;28;20055;-80
2022/01/31 02:26:11;;;;;;;24.80;12.77;;;;;;;-2.39;75.59;97648.19;4997366;28;20394;-79
2022/01/31 02:28:59;;;;;;;28.23;14.27;;;;;;;-2.44;75.30;97642.16;5013996;28;20153;-78
2022/01/31 02:31:26;;;;;;;30.90;13.88;;;;;;;-2.53;75.28;97635.16;5013928;28;20084;-79
2022/01/31 02:33:53;;;;;;;26.60;12.40;;;;;;;-2.51;75.41;97629.25;5013867;28;20100;-80
2022/01/31 02:36:20;;;;;;;27.38;13.57;;;;;;;-2.36;75.71;97648.28;5013522;28;20105;-78
2022/01/31 02:38:47;;;;;;;29.17;13.07;;;;;;;-2.31;75.29;97644.09;5014659;28;20561;-80
2022/01/31 02:41:14;;;;;;;24.27;12.23;;;;;;;-2.23;75.24;97650.22;5013480;28;20502;-78
2022/01/31 02:43:48;;;;;;;28.35;12.15;;;;;;;-2.25;75.43;97656.16;5013413;28;20469;-79
2022/01/31 02:46:23;;;;;;;23.80;12.20;;;;;;;-2.24;75.42;97657.84;4969631;28;20045;-80
2022/01/31 02:48:56;;;;;;;22.77;11.77;;;;;;;-2.33;75.62;97648.31;5015197;28;20050;-78
2022/01/31 02:51:26;;;;;;;24.77;11.93;;;;;;;-2.31;75.86;97662.00;5015934;28;20057;-79
2022/01/31 02:53:55;;;;;;;26.83;12.30;;;;;;;-2.37;75.62;97646.53;5014391;28;20049;-79
2022/01/31 02:56:23;;;;;;;27.77;12.55;;;;;;;-2.34;75.94;97642.34;5002174;28;20114;-79
2022/01/31 02:58:50;;;;;;;27.73;12.23;;;;;;;-2.33;75.99;97645.75;5017753;28;20053;-80
2022/01/31 03:01:18;;;;;;;28.33;12.95;;;;;;;-2.35;75.63;97622.72;4982057;28;20049;-80
2022/01/31 03:03:46;;;;;;;28.92;13.45;;;;;;;-2.35;75.65;97643.16;4996917;28;20505;-80
2022/01/31 03:06:14;;;;;;;26.25;12.75;;;;;;;-2.35;75.90;97637.19;5014108;28;20144;-80
2022/01/31 03:08:41;;;;;;;29.17;13.32;;;;;;;-2.43;76.04;97626.84;5013043;28;20502;-80
2022/01/31 03:11:18;;;;;;;27.17;14.18;;;;;;;-2.33;76.21;97658.53;4998057;28;20073;-80
2022/01/31 03:14:00;;;;;;;28.70;13.25;;;;;;;-2.41;76.37;97647.31;5013014;28;20141;-79
2022/01/31 03:16:28;;;;;;;29.20;12.18;;;;;;;-2.37;76.32;97649.94;5012784;28;20058;-78
2022/01/31 03:19:18;;;;;;;28.25;12.90;;;;;;;-2.43;75.95;97647.31;5012964;28;20065;-78
2022/01/31 03:21:51;;;;;;;29.25;14.38;;;;;;;-2.35;76.45;97649.97;5013234;28;20068;-79
2022/01/31 03:24:18;;;;;;;25.52;12.15;;;;;;;-2.40;76.52;97626.88;5012586;28;20046;-78
2022/01/31 03:26:46;;;;;;;26.58;13.10;;;;;;;-2.30;76.67;97659.47;5012703;28;20064;-79
2022/01/31 03:29:16;;;;;;;28.25;14.30;;;;;;;-2.31;76.44;97644.94;5012464;28;20057;-81
2022/01/31 03:31:43;;;;;;;30.67;13.80;;;;;;;-2.25;76.69;97669.78;4996219;28;20113;-80
2022/01/31 03:34:11;;;;;;;31.05;14.55;;;;;;;-2.15;76.23;97668.25;5012455;28;20060;-79
2022/01/31 03:36:38;;;;;;;30.73;14.77;;;;;;;-2.15;76.09;97650.34;5011805;28;20100;-78
2022/01/31 03:39:10;;;;;;;27.33;13.95;;;;;;;-2.23;76.21;97649.38;5014000;28;20050;-79
2022/01/31 03:41:38;;;;;;;32.60;14.52;;;;;;;-2.27;76.47;97651.00;5012262;28;20521;-81
2022/01/31 03:44:05;;;;;;;28.10;14.52;;;;;;;-2.32;76.65;97647.50;5011915;28;20437;-79
2022/01/31 03:46:35;;;;;;;29.55;14.38;;;;;;;-2.34;76.50;97655.13;5012352;28;20046;-81
2022/01/31 03:49:02;;;;;;;29.33;14.32;;;;;;;-2.39;76.49;97635.41;5013685;28;20056;-78
2022/01/31 03:51:37;;;;;;;30.13;14.60;;;;;;;-2.32;76.57;97656.03;5012408;28;20594;-79
2022/01/31 03:54:05;;;;;;;30.50;14.88;;;;;;;-2.33;76.45;97664.50;5012559;28;20061;-80
2022/01/31 03:56:32;;;;;;;28.40;14.07;;;;;;;-2.31;76.67;97657.75;5012512;28;20506;-79
2022/01/31 03:59:12;;;;;;;;;;;;;;;-2.38;76.76;97650.78;5012522;28;20053;-79
2022/01/31 04:01:39;;;;;;;26.20;13.27;;;;;;;-2.32;76.39;97671.38;5012177;28;19925;-81
2022/01/31 04:04:10;;;;;;;27.52;13.50;;;;;;;-2.30;76.38;97650.94;5012091;28;20506;-81
2022/01/31 04:06:38;;;;;;;;;;;;;;;-2.35;76.96;97663.63;5014609;28;20062;-81
2022/01/31 04:09:06;;;;;;;28.23;14.32;;;;;;;-2.25;76.41;97663.81;5013238;28;19926;-80
2022/01/31 04:11:34;;;;;;;26.60;12.32;;;;;;;-2.28;76.40;97662.94;5013112;28;20056;-82
2022/01/31 04:14:01;;;;;;;31.40;14.77;;;;;;;-2.34;76.79;97654.28;5013586;28;20053;-81
2022/01/31 04:16:27;;;;;;;25.77;13.05;;;;;;;-2.35;77.38;97640.59;5012372;28;20104;-80
2022/01/31 04:18:54;;;;;;;28.10;13.57;;;;;;;-2.21;76.72;97651.13;5013358;28;20064;-79
2022/01/31 04:21:22;;;;;;;23.35;12.75;;;;;;;-2.20;76.87;97649.41;5010808;28;20104;-79
2022/01/31 04:23:51;;;;;;;26.60;13.95;;;;;;;-2.30;76.71;97620.25;5012821;28;20050;-80
2022/01/31 04:26:18;;;;;;;30.02;14.57;;;;;;;-2.26;76.74;97639.91;5012850;28;20046;-80
2022/01/31 04:28:49;;;;;;;27.38;12.85;;;;;;;-2.18;77.13;97653.72;5012969;28;20108;-79
2022/01/31 04:33:49;;;;;;;27.08;13.48;;;;;;;-2.26;77.17;97627.13;5013062;28;20166;-80
2022/01/31 04:36:17;;;;;;;26.05;13.23;;;;;;;-2.21;76.96;97630.66;5012808;28;20128;-78
2022/01/31 04:38:46;;;;;;;25.60;12.90;;;;;;;-2.26;77.29;97639.91;5012224;28;20054;-81
2022/01/31 04:41:13;;;;;;;27.63;13.13;;;;;;;-2.38;77.42;97630.34;5012722;28;20050;-80
2022/01/31 04:43:42;;;;;;;28.42;13.13;;;;;;;-2.37;77.46;97644.81;5012909;28;20050;-79
2022/01/31 04:46:10;;;;;;;25.48;12.93;;;;;;;-2.27;77.33;97649.28;5012744;28;20054;-80
2022/01/31 04:48:37;;;;;;;25.30;12.85;;;;;;;-2.32;77.47;97629.59;4998760;28;20064;-81
2022/01/31 04:51:05;;;;;;;22.50;12.20;;;;;;;-2.30;77.32;97646.69;5016863;28;20050;-81
2022/01/31 04:53:34;;;;;;;29.35;13.55;;;;;;;-2.37;77.49;97636.31;4998830;28;20049;-81
2022/01/31 04:56:02;;;;;;;25.42;11.60;;;;;;;-2.37;77.44;97634.59;5021714;28;20112;-79
2022/01/31 04:58:32;;;;;;;24.63;12.00;;;;;;;-2.34;76.98;97623.59;4998379;28;20413;-80
2022/01/31 05:00:59;;;;;;;25.27;12.00;;;;;;;-2.32;76.89;97627.03;4999201;28;20060;-80
2022/01/31 05:03:30;;;;;;;26.97;13.10;;;;;;;-2.28;77.37;97649.25;5015986;28;20467;-79
2022/01/31 05:05:58;;;;;;;28.17;13.27;;;;;;;-2.23;77.15;97632.31;5014760;28;20404;-80
2022/01/31 05:08:27;;;;;;;25.05;11.43;;;;;;;-2.29;77.19;97625.38;5016372;28;20085;-84
2022/01/31 05:10:57;;;;;;;25.80;12.15;;;;;;;-2.24;77.44;97640.81;5001324;28;20505;-84
2022/01/31 05:13:24;;;;;;;27.70;12.85;;;;;;;-2.36;76.96;97613.31;5016584;28;20053;-84
2022/01/31 05:15:53;;;;;;;25.75;12.45;;;;;;;-2.19;77.26;97636.66;5003520;28;20077;-84
2022/01/31 05:18:21;;;;;;;31.77;14.70;;;;;;;-2.13;76.82;97639.31;4999868;28;20049;-82
2022/01/31 05:20:48;;;;;;;25.35;12.27;;;;;;;-2.15;76.68;97628.22;5016739;28;20078;-81
2022/01/31 05:23:16;;;;;;;28.50;13.23;;;;;;;-2.08;77.21;97645.38;4998478;28;20425;-86
2022/01/31 05:25:43;;;;;;;25.25;12.73;;;;;;;-2.27;77.08;97626.28;5015830;28;20098;-83
2022/01/31 05:28:10;;;;;;;25.95;12.43;;;;;;;-2.01;76.84;97660.84;5013913;28;20473;-83
2022/01/31 05:30:38;;;;;;;24.58;12.23;;;;;;;-1.96;76.96;97657.50;4973063;28;20055;-85
2022/01/31 05:33:06;;;;;;;23.73;12.30;;;;;;;-2.02;76.84;97638.63;4997518;28;20042;-84
2022/01/31 05:35:33;;;;;;;26.42;12.65;;;;;;;-1.99;76.78;97628.47;4996487;28;20590;-85
2022/01/31 05:38:02;;;;;;;23.42;12.70;;;;;;;-1.85;77.01;97647.47;4997799;28;20534;-82
2022/01/31 05:40:31;;;;;;;24.08;12.27;;;;;;;-1.81;76.68;97645.81;4996402;28;20089;-83
2022/01/31 05:42:59;;;;;;;23.77;12.27;;;;;;;-1.81;76.44;97650.94;4995268;28;20465;-84
2022/01/31 05:45:27;;;;;;;25.83;13.60;;;;;;;-1.96;76.50;97644.72;4996347;28;20057;-82
2022/01/31 05:47:55;;;;;;;26.52;13.02;;;;;;;-2.01;76.77;97636.13;4996579;28;20078;-84
2022/01/31 05:50:23;;;;;;;26.83;12.63;;;;;;;-2.10;76.86;97629.13;4996323;28;20510;-84
2022/01/31 05:52:51;;;;;;;25.65;13.15;;;;;;;-1.93;77.09;97665.25;4994026;28;20053;-82
2022/01/31 05:55:19;;;;;;;25.58;13.27;;;;;;;-1.94;77.27;97653.28;4997067;28;20085;-86
2022/01/31 05:57:46;;;;;;;27.75;13.85;;;;;;;-2.02;76.79;97636.97;4997106;28;20450;-84
2022/01/31 06:00:21;;;;;;;26.65;13.05;;;;;;;-1.89;76.84;97658.50;4964000;28;20193;-86
2022/01/31 06:02:56;;;;;;;28.85;15.02;;;;;;;-1.93;77.03;97651.59;4995665;28;20050;-84
2022/01/31 06:05:27;;;;;;;30.33;14.98;;;;;;;-1.97;77.01;97640.44;4988466;28;20085;-83
2022/01/31 06:07:54;;;;;;;28.98;14.00;;;;;;;-1.79;76.68;97670.59;4994702;28;20523;-83
2022/01/31 06:10:23;;;;;;;27.50;13.93;;;;;;;-1.80;76.67;97662.91;4995050;28;20109;-83
2022/01/31 06:12:59;;;;;;;27.48;13.75;;;;;;;-1.90;76.83;97642.28;4995257;28;20054;-84
2022/01/31 06:15:29;;;;;;;28.58;14.10;;;;;;;-2.00;76.65;97622.50;4979156;28;20062;-83
2022/01/31 06:17:56;;;;;;;27.98;13.32;;;;;;;-1.89;76.79;97640.59;4995960;28;20054;-81
2022/01/31 06:20:26;;;;;;;31.70;14.43;;;;;;;-1.91;76.60;97635.44;4994524;28;20050;-81
2022/01/31 06:22:53;;;;;;;29.23;14.23;;;;;;;-1.82;76.68;97642.41;4995848;28;20442;-81
2022/01/31 06:25:21;;;;;;;30.17;14.93;;;;;;;-1.68;76.61;97656.31;4995835;28;20141;-82
2022/01/31 06:27:50;;;;;;;27.85;14.02;;;;;;;-1.66;76.14;97634.16;4981933;28;20112;-81
2022/01/31 06:30:24;;;;;;;28.73;13.82;;;;;;;-1.62;75.69;97635.03;4978626;28;20088;-81
2022/01/31 06:32:54;;;;;;;28.40;14.05;;;;;;;-1.62;76.00;97642.72;4995578;28;20141;-83
2022/01/31 06:35:23;;;;;;;29.50;13.98;;;;;;;-1.63;76.12;97641.03;5010389;28;20442;-81
2022/01/31 06:37:51;;;;;;;27.83;14.40;;;;;;;-1.54;76.00;97640.31;4995754;28;20149;-84
2022/01/31 06:40:19;;;;;;;30.80;15.63;;;;;;;-1.49;75.91;97634.41;4994805;28;20050;-82
2022/01/31 06:42:47;;;;;;;31.13;14.77;;;;;;;-1.62;76.01;97614.56;4994610;28;20073;-83
2022/01/31 06:45:14;;;;;;;30.23;14.43;;;;;;;-1.38;75.94;97643.94;4978953;28;20068;-84
2022/01/31 06:47:41;;;;;;;32.20;14.65;;;;;;;-1.50;75.82;97614.75;4995336;28;20101;-82
2022/01/31 06:50:11;;;;;;;31.75;13.80;;;;;;;-1.26;75.85;97651.81;4981129;28;20050;-83
2022/01/31 06:52:42;;;;;;;29.58;13.90;;;;;;;-1.25;75.62;97641.63;5001418;28;20181;-82
2022/01/31 06:55:18;;;;;;;32.60;14.48;;;;;;;-1.27;75.66;97637.28;5002251;28;20050;-79
2022/01/31 06:57:47;;;;;;;30.27;14.80;;;;;;;-1.21;75.47;97632.25;5007127;28;20077;-80
2022/01/31 07:00:17;;;;;;;29.87;15.10;;;;;;;-1.24;75.47;97627.94;4995482;28;20062;-79
2022/01/31 07:02:47;;;;;;;33.25;14.68;;;;;;;-1.06;75.49;97649.53;4998031;28;20547;-82
2022/01/31 07:05:15;;;;;;;32.80;14.95;;;;;;;-1.10;75.39;97625.59;4978209;28;20054;-81
2022/01/31 07:07:42;;;;;;;35.08;15.55;;;;;;;-0.95;74.97;97608.69;4994785;28;20058;-82
2022/01/31 07:10:11;;;;;;;36.83;16.20;;;;;;;-0.86;74.76;97613.91;4994211;28;20072;-81
2022/01/31 07:12:47;;;;;;;35.70;15.43;;;;;;;-0.81;74.82;97619.97;4995144;28;20803;-82
2022/01/31 07:15:19;;;;;;;39.78;18.25;;;;;;;-0.72;74.85;97612.41;4992197;28;20051;-81
2022/01/31 07:17:47;;;;;;;38.28;17.33;;;;;;;-0.66;74.90;97616.75;4974943;28;20066;-82
2022/01/31 07:20:28;;;;;;;39.90;18.23;;;;;;;-0.74;74.80;97616.63;4981695;28;20058;-83
2022/01/31 07:23:01;;;;;;;;;;;;;;;-0.74;74.93;97629.47;5000616;28;20050;-79
2022/01/31 07:25:35;;;;;;;38.65;17.80;;;;;;;-0.80;74.81;97602.88;5016192;28;19926;-82
2022/01/31 07:28:06;;;;;;;41.38;17.55;;;;;;;-0.66;74.90;97629.56;4994914;28;20454;-82
2022/01/31 07:30:35;;;;;;;42.67;18.08;;;;;;;-0.66;74.81;97632.97;5013370;28;20065;-82
2022/01/31 07:33:02;;;;;;;47.00;20.23;;;;;;;-0.60;74.43;97618.50;5021229;28;20049;-81
2022/01/31 07:35:30;;;;;;;42.63;19.42;;;;;;;-0.64;74.30;97582.59;5020765;28;20046;-85
2022/01/31 07:37:58;;;;;;;45.35;20.20;;;;;;;-0.28;74.31;97618.84;5019624;28;20054;-84
2022/01/31 07:40:25;;;;;;;42.33;19.00;;;;;;;-0.09;73.46;97651.56;5018735;28;20125;-83
2022/01/31 07:42:52;;;;;;;44.90;20.55;;;;;;;-0.43;73.89;97607.63;5019753;28;20064;-81
2022/01/31 07:45:24;;;;;;;46.97;19.65;;;;;;;-0.46;74.39;97628.06;5014972;28;20153;-82
2022/01/31 07:47:51;;;;;;;47.70;19.13;;;;;;;-0.45;74.53;97658.03;5023474;28;20070;-83
2022/01/31 07:50:19;;;;;;;47.45;19.33;;;;;;;-0.79;74.96;97605.47;5021150;28;20293;-81
2022/01/31 07:52:46;;;;;;;46.13;19.55;;;;;;;-0.68;74.71;97628.69;5017358;28;20403;-83
2022/01/31 07:55:14;;;;;;;49.58;21.13;;;;;;;-0.78;75.24;97632.81;5011987;28;20106;-85
2022/01/31 07:57:46;;;;;;;44.70;18.85;;;;;;;-0.69;75.57;97655.16;5014030;28;20050;-80
2022/01/31 08:00:15;;;;;;;41.45;18.70;;;;;;;-0.63;75.21;97657.78;4997248;28;20046;-82
2022/01/31 08:02:42;;;;;;;51.20;19.17;;;;;;;-0.63;75.42;97645.81;5013436;28;20509;-81
2022/01/31 08:05:10;;;;;;;48.03;19.23;;;;;;;-0.57;75.36;97644.19;5012518;28;20042;-81
2022/01/31 08:07:38;;;;;;;45.83;19.08;;;;;;;-0.62;74.99;97645.00;5004279;28;20052;-81
2022/01/31 08:10:06;;;;;;;47.30;19.15;;;;;;;-0.48;74.85;97641.75;5013333;28;20561;-79
2022/01/31 08:12:36;;;;;;;55.85;20.08;;;;;;;-0.57;74.47;97641.63;5014078;28;20065;-80
2022/01/31 08:15:07;;;;;;;53.20;20.85;;;;;;;-0.74;75.54;97632.03;4985667;28;20152;-80
2022/01/31 08:17:35;;;;;;;42.92;19.10;;;;;;;-0.87;75.61;97642.97;4996785;28;20108;-80
2022/01/31 08:20:02;;;;;;;44.60;19.52;;;;;;;-0.91;75.78;97646.31;5017352;28;20064;-80
2022/01/31 08:22:30;;;;;;;51.35;21.38;;;;;;;-1.00;75.99;97621.44;5017245;28;20088;-79
2022/01/31 08:24:57;;;;;;;50.72;21.10;;;;;;;-0.86;75.80;97639.53;4979631;28;20116;-79
2022/01/31 08:27:24;;;;;;;52.00;22.35;;;;;;;-0.63;76.00;97650.09;4979501;28;20053;-80
2022/01/31 08:29:59;;;;;;;45.95;20.17;;;;;;;-0.51;75.35;97654.53;5012666;28;20062;-81
2022/01/31 08:32:43;;;;;;;52.00;20.33;;;;;;;-0.37;75.21;97649.56;5013304;28;20509;-81
2022/01/31 08:37:56;;;;;;;48.95;21.90;;;;;;;-0.16;74.74;97651.50;5012970;28;20072;-81
2022/01/31 08:40:23;;;;;;;48.70;21.23;;;;;;;-0.20;74.63;97637.75;4995223;28;20060;-81
2022/01/31 08:42:51;;;;;;;44.10;20.90;;;;;;;-0.31;74.27;97631.66;5012778;28;20489;-80
2022/01/31 08:45:19;;;;;;;47.58;22.33;;;;;;;-0.18;74.24;97648.91;4995294;28;20073;-81
2022/01/31 08:47:46;;;;;;;53.70;21.00;;;;;;;-0.37;74.92;97645.28;5012923;28;20104;-79
2022/01/31 08:50:13;;;;;;;47.97;22.02;;;;;;;-0.28;75.12;97645.41;4979366;28;20082;-81
2022/01/31 08:52:40;;;;;;;50.80;22.55;;;;;;;-0.50;74.63;97600.66;5013282;28;20149;-83
2022/01/31 08:55:12;;;;;;;45.05;20.73;;;;;;;-0.43;75.23;97623.00;5013507;28;20053;-79
2022/01/31 08:57:39;;;;;;;49.78;21.60;;;;;;;-0.48;75.06;97621.22;4972119;28;20077;-84
2022/01/31 09:00:07;;;;;;;43.72;20.48;;;;;;;-0.57;75.46;97627.09;5012335;28;20058;-82
2022/01/31 09:02:41;;;;;;;46.53;21.05;;;;;;;-0.59;75.24;97607.41;5012327;28;20107;-84
2022/01/31 09:05:09;;;;;;;45.75;19.55;;;;;;;-0.46;75.48;97627.22;5011773;28;20062;-81
2022/01/31 09:07:36;;;;;;;46.88;20.65;;;;;;;-0.42;75.23;97636.69;5010962;28;20046;-82
2022/01/31 09:10:04;;;;;;;46.22;20.67;;;;;;;-0.30;74.81;97620.53;4966079;28;20212;-82
2022/01/31 09:12:34;;;;;;;38.22;18.52;;;;;;;-0.11;74.26;97627.59;5012111;28;20057;-81
2022/01/31 09:15:02;;;;;;;40.20;19.58;;;;;;;-0.21;74.52;97608.69;5012914;28;20061;-84
2022/01/31 09:17:31;;;;;;;36.90;19.23;;;;;;;-0.18;74.07;97615.56;5002878;28;20137;-83
2022/01/31 09:19:58;;;;;;;37.60;17.83;;;;;;;-0.19;73.78;97613.84;4996495;28;20080;-82
2022/01/31 09:22:25;;;;;;;37.97;18.23;;;;;;;-0.13;73.98;97620.72;5012327;28;20418;-79
2022/01/31 09:24:53;;;;;;;41.08;18.35;;;;;;;-0.23;74.40;97610.38;5012294;28;20053;-84
2022/01/31 09:27:20;;;;;;;38.38;18.30;;;;;;;-0.20;73.85;97596.72;4981720;28;20563;-82
2022/01/31 09:29:48;;;;;;;37.15;18.35;;;;;;;-0.05;73.57;97625.09;5009955;28;20053;-83
2022/01/31 09:32:21;;;;;;;41.30;19.63;;;;;;;0.07;73.52;97629.50;4995025;28;20046;-81
2022/01/31 09:34:49;;;;;;;43.08;20.23;;;;;;;0.06;73.75;97620.06;4981687;28;20061;-82
2022/01/31 09:37:19;;;;;;;41.30;20.02;;;;;;;0.14;73.08;97615.84;4982169;28;20092;-80
2022/01/31 09:39:47;;;;;;;34.50;18.38;;;;;;;0.09;73.44;97621.81;5015984;28;20053;-81
2022/01/31 09:42:25;;;;;;;41.80;19.92;;;;;;;0.13;73.61;97620.97;5017067;28;20054;-82
2022/01/31 09:45:20;;;;;;;40.25;19.35;;;;;;;0.06;73.64;97614.91;4983142;28;20053;-82
2022/01/31 09:50:27;;;;;;;41.42;18.67;;;;;;;0.17;73.65;97612.44;5016374;28;20057;-80
2022/01/31 09:52:56;;;;;;;41.58;18.92;;;;;;;0.17;73.75;97618.47;4998762;28;20096;-83
2022/01/31 09:55:25;;;;;;;42.63;19.00;;;;;;;-0.02;73.63;97578.94;4982072;28;20060;-80
2022/01/31 09:57:53;;;;;;;47.10;21.48;;;;;;;0.14;74.12;97581.63;4998872;28;20096;-81
2022/01/31 10:00:32;;;;;;;45.20;20.30;;;;;;;0.46;73.18;97612.69;5017944;28;20112;-84
2022/01/31 10:03:06;;;;;;;43.75;20.55;;;;;;;0.16;73.75;97583.34;5016421;28;20050;-80
2022/01/31 10:05:34;;;;;;;41.30;18.35;;;;;;;0.19;73.55;97598.78;5005143;28;20033;-83
2022/01/31 10:08:11;;;;;;;44.72;20.35;;;;;;;0.07;74.27;97590.13;5019599;28;20076;-81
2022/01/31 10:10:41;;;;;;;41.72;20.02;;;;;;;0.03;73.98;97575.53;5025108;28;20034;-84
2022/01/31 10:16:30;;;;;;;46.85;19.35;;;;;;;0.17;74.13;97605.63;5020818;28;20415;-81
2022/01/31 10:19:16;;;;;;;47.72;20.02;;;;;;;-0.05;74.52;97565.19;5001571;28;20142;-82
2022/01/31 10:22:05;;;;;;;48.58;19.50;;;;;;;0.30;74.08;97585.16;5013022;28;20045;-82
2022/01/31 10:24:34;;;;;;;53.55;21.95;;;;;;;0.58;73.38;97593.91;5015452;28;20080;-81
2022/01/31 10:27:09;;;;;;;44.30;20.95;;;;;;;0.72;73.50;97591.47;5013898;28;20132;-80
2022/01/31 10:29:37;;;;;;;41.20;19.80;;;;;;;0.74;73.29;97589.75;4997270;28;20061;-81
2022/01/31 10:32:11;;;;;;;44.35;20.42;;;;;;;0.52;73.36;97589.63;5014142;28;20058;-82
2022/01/31 10:34:46;;;;;;;39.78;19.17;;;;;;;0.44;73.59;97585.28;4997762;28;20089;-80
2022/01/31 10:37:17;;;;;;;41.17;19.65;;;;;;;0.35;73.67;97571.50;5014668;28;20057;-80
2022/01/31 10:45:29;;;;;;;47.25;19.20;;;;;;;0.63;73.45;97591.41;5013358;28;20061;-81
2022/01/31 10:57:00;;;;;;;43.45;20.08;;;;;;;0.46;73.49;97558.75;4998240;28;20506;-80
2022/01/31 10:59:32;;;;;;;48.45;20.80;;;;;;;0.61;73.66;97593.97;4994998;28;20140;-80
2022/01/31 11:02:04;;;;;;;45.38;20.33;;;;;;;0.44;73.97;97563.00;4962138;28;20062;-82
2022/01/31 11:04:39;;;;;;;44.60;21.75;;;;;;;0.43;74.18;97584.44;4978774;28;20459;-81
2022/01/31 11:07:12;;;;;;;49.75;20.75;;;;;;;0.17;74.04;97553.38;5010337;28;20052;-81
2022/01/31 11:09:43;;;;;;;43.63;19.30;;;;;;;0.16;74.40;97554.25;5019609;28;20061;-82
2022/01/31 11:12:11;;;;;;;48.00;21.27;;;;;;;0.10;74.66;97554.19;5020120;28;20058;-81
2022/01/31 11:14:42;;;;;;;46.97;21.52;;;;;;;0.28;74.93;97595.44;5019518;28;20098;-80
2022/01/31 11:17:12;;;;;;;48.05;21.02;;;;;;;0.30;74.86;97578.34;5002490;28;20050;-82
2022/01/31 11:19:43;;;;;;;52.42;22.27;;;;;;;0.36;74.81;97575.78;5001813;28;20049;-80
2022/01/31 11:22:13;;;;;;;47.97;21.63;;;;;;;0.49;74.83;97589.56;5020574;28;20070;-81
2022/01/31 11:25:00;;;;;;;47.80;20.77;;;;;;;0.46;74.11;97553.59;5016543;28;20050;-85
2022/01/31 11:27:39;;;;;;;50.15;22.27;;;;;;;0.38;73.84;97539.84;4999577;28;20053;-83
2022/01/31 11:30:08;;;;;;;45.10;20.48;;;;;;;0.55;73.94;97556.22;4996998;28;20061;-81
2022/01/31 11:32:49;;;;;;;46.92;22.30;;;;;;;0.70;74.06;97572.59;4996878;28;20089;-82
2022/01/31 11:35:22;;;;;;;46.47;22.77;;;;;;;0.64;74.36;97588.81;4999106;28;20054;-82
2022/01/31 11:37:59;;;;;;;53.22;21.48;;;;;;;0.68;74.40;97584.56;4997709;28;20085;-83
2022/01/31 11:40:29;;;;;;;45.25;19.17;;;;;;;0.63;73.96;97581.97;4998484;28;20108;-82
2022/01/31 11:43:01;;;;;;;40.53;19.02;;;;;;;0.39;74.45;97582.69;4966709;28;20045;-81
2022/01/31 11:45:31;;;;;;;43.80;19.17;;;;;;;0.33;74.72;97577.50;5013791;28;20057;-82
2022/01/31 11:48:05;;;;;;;40.93;17.10;;;;;;;0.14;74.91;97554.22;5013234;28;20050;-82
2022/01/31 11:50:42;;;;;;;41.22;17.77;;;;;;;0.10;75.15;97580.72;5010338;28;20141;-81
2022/01/31 11:53:11;;;;;;;43.15;19.08;;;;;;;-0.07;75.44;97556.63;4997124;28;20112;-81
2022/01/31 11:55:38;;;;;;;42.35;18.83;;;;;;;-0.09;75.88;97573.72;4996115;28;20041;-83
2022/01/31 11:58:15;;;;;;;42.05;18.92;;;;;;;-0.13;76.12;97577.97;5015142;28;20137;-81